Terminal Aerodrome Forecast
Issued by NWS

Home | Current Version | Previous Version | Text Only | Print | Product List | Glossary On
Versions: 1 2 3 4 5 6 7 8 9 10 11 12 13
809
FTUS44 KLIX 270101 AAA
TAFGPT
TAF AMD
KGPT 270101Z 2701/2724 22004KT P6SM VCTS SCT035CB BKN130
      TEMPO 2701/2702 VRB25KT 4SM -TSRA SCT025 BKN035CB
     FM270230 30004KT P6SM FEW070 BKN150
     FM271100 35005KT P6SM SCT025 BKN080
     FM271500 33006KT P6SM SCT040
     FM272000 21005KT P6SM SCT045=

USA.gov is the U.S. government's official web portal to all federal, state and local government web resources and services.